sensor_id;sensor_type;location;lat;lon;timestamp;P1;durP1;ratioP1;P2;durP2;ratioP2
40252;SDS011;25972;51.854;4.534;2023-02-10T00:01:25;28.53;;;12.00;;
40252;SDS011;25972;51.854;4.534;2023-02-10T00:03:52;26.87;;;10.90;;
40252;SDS011;25972;51.854;4.534;2023-02-10T00:06:20;27.47;;;12.67;;
40252;SDS011;25972;51.854;4.534;2023-02-10T00:08:49;28.13;;;12.03;;
40252;SDS011;25972;51.854;4.534;2023-02-10T00:11:17;30.03;;;12.70;;
40252;SDS011;25972;51.854;4.534;2023-02-10T00:13:43;32.83;;;13.43;;
40252;SDS011;25972;51.854;4.534;2023-02-10T00:16:12;33.53;;;14.60;;
40252;SDS011;25972;51.854;4.534;2023-02-10T00:18:39;35.70;;;14.23;;
40252;SDS011;25972;51.854;4.534;2023-02-10T00:21:06;38.20;;;14.30;;
40252;SDS011;25972;51.854;4.534;2023-02-10T00:23:34;96.10;;;26.13;;
40252;SDS011;25972;51.854;4.534;2023-02-10T00:26:04;66.17;;;20.63;;
40252;SDS011;25972;51.854;4.534;2023-02-10T00:28:32;172.37;;;40.00;;
40252;SDS011;25972;51.854;4.534;2023-02-10T00:30:59;170.90;;;43.67;;
40252;SDS011;25972;51.854;4.534;2023-02-10T00:33:40;138.23;;;37.03;;
40252;SDS011;25972;51.854;4.534;2023-02-10T00:36:10;224.40;;;57.40;;
40252;SDS011;25972;51.854;4.534;2023-02-10T00:38:38;131.33;;;41.60;;
40252;SDS011;25972;51.854;4.534;2023-02-10T00:41:07;100.50;;;31.83;;
40252;SDS011;25972;51.854;4.534;2023-02-10T00:43:34;58.67;;;23.37;;
40252;SDS011;25972;51.854;4.534;2023-02-10T00:46:02;52.00;;;20.27;;
40252;SDS011;25972;51.854;4.534;2023-02-10T00:48:28;41.43;;;15.97;;
40252;SDS011;25972;51.854;4.534;2023-02-10T00:50:54;30.70;;;12.60;;
40252;SDS011;25972;51.854;4.534;2023-02-10T00:53:20;31.73;;;12.07;;
40252;SDS011;25972;51.854;4.534;2023-02-10T00:55:47;26.00;;;11.03;;
40252;SDS011;25972;51.854;4.534;2023-02-10T00:58:16;25.17;;;10.95;;
40252;SDS011;25972;51.854;4.534;2023-02-10T01:00:43;26.47;;;10.70;;
40252;SDS011;25972;51.854;4.534;2023-02-10T01:03:09;23.90;;;9.90;;
40252;SDS011;25972;51.854;4.534;2023-02-10T01:05:35;29.43;;;11.07;;
40252;SDS011;25972;51.854;4.534;2023-02-10T01:08:01;25.33;;;9.00;;
40252;SDS011;25972;51.854;4.534;2023-02-10T01:10:31;21.90;;;10.23;;
40252;SDS011;25972;51.854;4.534;2023-02-10T01:13:00;23.73;;;10.67;;
40252;SDS011;25972;51.854;4.534;2023-02-10T01:15:27;21.47;;;9.40;;
40252;SDS011;25972;51.854;4.534;2023-02-10T01:17:54;26.87;;;10.90;;
40252;SDS011;25972;51.854;4.534;2023-02-10T01:20:20;22.13;;;9.97;;
40252;SDS011;25972;51.854;4.534;2023-02-10T01:22:46;22.83;;;9.90;;
40252;SDS011;25972;51.854;4.534;2023-02-10T01:25:12;25.13;;;10.00;;
40252;SDS011;25972;51.854;4.534;2023-02-10T01:27:38;24.53;;;10.33;;
40252;SDS011;25972;51.854;4.534;2023-02-10T01:30:07;27.73;;;10.57;;
40252;SDS011;25972;51.854;4.534;2023-02-10T01:32:35;22.60;;;10.00;;
40252;SDS011;25972;51.854;4.534;2023-02-10T01:35:02;22.50;;;9.87;;
40252;SDS011;25972;51.854;4.534;2023-02-10T01:37:29;21.97;;;9.80;;
40252;SDS011;25972;51.854;4.534;2023-02-10T01:39:55;27.10;;;10.33;;
40252;SDS011;25972;51.854;4.534;2023-02-10T01:42:21;20.92;;;9.48;;
40252;SDS011;25972;51.854;4.534;2023-02-10T01:47:13;24.83;;;9.87;;
40252;SDS011;25972;51.854;4.534;2023-02-10T01:49:49;21.93;;;9.47;;
40252;SDS011;25972;51.854;4.534;2023-02-10T01:52:18;23.33;;;9.60;;
40252;SDS011;25972;51.854;4.534;2023-02-10T01:54:49;25.53;;;9.87;;
40252;SDS011;25972;51.854;4.534;2023-02-10T01:57:22;21.03;;;8.90;;
40252;SDS011;25972;51.854;4.534;2023-02-10T02:00:00;27.13;;;9.93;;
40252;SDS011;25972;51.854;4.534;2023-02-10T02:02:37;26.03;;;10.60;;
40252;SDS011;25972;51.854;4.534;2023-02-10T02:05:05;23.83;;;9.87;;
40252;SDS011;25972;51.854;4.534;2023-02-10T02:07:41;24.57;;;10.53;;
40252;SDS011;25972;51.854;4.534;2023-02-10T02:10:09;25.53;;;10.53;;
40252;SDS011;25972;51.854;4.534;2023-02-10T02:18:28;22.40;;;9.67;;
40252;SDS011;25972;51.854;4.534;2023-02-10T02:21:27;22.70;;;9.90;;
40252;SDS011;25972;51.854;4.534;2023-02-10T02:27:04;25.07;;;10.50;;
40252;SDS011;25972;51.854;4.534;2023-02-10T02:30:23;24.43;;;10.27;;
40252;SDS011;25972;51.854;4.534;2023-02-10T02:33:19;25.53;;;9.63;;
40252;SDS011;25972;51.854;4.534;2023-02-10T02:39:10;23.10;;;9.57;;
40252;SDS011;25972;51.854;4.534;2023-02-10T02:41:36;27.77;;;11.17;;
40252;SDS011;25972;51.854;4.534;2023-02-10T02:44:03;26.80;;;10.23;;
40252;SDS011;25972;51.854;4.534;2023-02-10T02:49:13;23.37;;;10.03;;
40252;SDS011;25972;51.854;4.534;2023-02-10T02:52:09;30.67;;;10.57;;
40252;SDS011;25972;51.854;4.534;2023-02-10T02:54:59;21.70;;;10.23;;
40252;SDS011;25972;51.854;4.534;2023-02-10T03:00:19;27.63;;;9.70;;
40252;SDS011;25972;51.854;4.534;2023-02-10T03:02:49;21.50;;;9.33;;
40252;SDS011;25972;51.854;4.534;2023-02-10T03:05:18;26.97;;;10.37;;
40252;SDS011;25972;51.854;4.534;2023-02-10T03:07:49;25.93;;;10.47;;
40252;SDS011;25972;51.854;4.534;2023-02-10T03:10:16;30.13;;;11.60;;
40252;SDS011;25972;51.854;4.534;2023-02-10T03:12:42;25.67;;;9.83;;
40252;SDS011;25972;51.854;4.534;2023-02-10T03:15:08;23.13;;;9.27;;
40252;SDS011;25972;51.854;4.534;2023-02-10T03:17:34;21.83;;;9.13;;
40252;SDS011;25972;51.854;4.534;2023-02-10T03:20:00;24.70;;;9.73;;
40252;SDS011;25972;51.854;4.534;2023-02-10T03:22:26;27.17;;;11.53;;
40252;SDS011;25972;51.854;4.534;2023-02-10T03:24:55;25.67;;;10.93;;
40252;SDS011;25972;51.854;4.534;2023-02-10T03:27:21;24.73;;;10.37;;
40252;SDS011;25972;51.854;4.534;2023-02-10T03:29:47;25.23;;;10.43;;
40252;SDS011;25972;51.854;4.534;2023-02-10T03:32:15;26.90;;;10.90;;
40252;SDS011;25972;51.854;4.534;2023-02-10T03:34:42;23.57;;;10.33;;
40252;SDS011;25972;51.854;4.534;2023-02-10T03:37:08;25.17;;;10.47;;
40252;SDS011;25972;51.854;4.534;2023-02-10T03:39:34;31.70;;;11.47;;
40252;SDS011;25972;51.854;4.534;2023-02-10T03:42:00;33.57;;;12.80;;
40252;SDS011;25972;51.854;4.534;2023-02-10T03:44:27;36.63;;;12.57;;
40252;SDS011;25972;51.854;4.534;2023-02-10T03:46:53;30.40;;;13.17;;
40252;SDS011;25972;51.854;4.534;2023-02-10T03:49:19;30.50;;;12.10;;
40252;SDS011;25972;51.854;4.534;2023-02-10T03:51:48;33.63;;;12.90;;
40252;SDS011;25972;51.854;4.534;2023-02-10T03:54:14;27.40;;;11.10;;
40252;SDS011;25972;51.854;4.534;2023-02-10T03:56:40;28.70;;;12.07;;
40252;SDS011;25972;51.854;4.534;2023-02-10T03:59:06;35.90;;;13.53;;
40252;SDS011;25972;51.854;4.534;2023-02-10T04:01:33;30.50;;;13.47;;
40252;SDS011;25972;51.854;4.534;2023-02-10T04:03:59;31.27;;;12.30;;
40252;SDS011;25972;51.854;4.534;2023-02-10T04:06:25;28.97;;;13.40;;
40252;SDS011;25972;51.854;4.534;2023-02-10T04:08:52;21.23;;;9.70;;
40252;SDS011;25972;51.854;4.534;2023-02-10T04:11:18;25.30;;;11.30;;
40252;SDS011;25972;51.854;4.534;2023-02-10T04:13:44;14.53;;;7.17;;
40252;SDS011;25972;51.854;4.534;2023-02-10T04:16:15;20.50;;;9.53;;
40252;SDS011;25972;51.854;4.534;2023-02-10T04:18:42;20.33;;;9.90;;
40252;SDS011;25972;51.854;4.534;2023-02-10T04:21:09;25.87;;;10.67;;
40252;SDS011;25972;51.854;4.534;2023-02-10T04:23:36;27.77;;;12.43;;
40252;SDS011;25972;51.854;4.534;2023-02-10T04:26:03;20.70;;;9.90;;
40252;SDS011;25972;51.854;4.534;2023-02-10T04:28:29;22.03;;;10.20;;
40252;SDS011;25972;51.854;4.534;2023-02-10T04:30:57;17.80;;;7.90;;
40252;SDS011;25972;51.854;4.534;2023-02-10T04:33:24;16.57;;;7.67;;
40252;SDS011;25972;51.854;4.534;2023-02-10T04:35:52;20.73;;;9.90;;
40252;SDS011;25972;51.854;4.534;2023-02-10T04:38:23;22.20;;;9.70;;
40252;SDS011;25972;51.854;4.534;2023-02-10T04:40:50;19.80;;;8.87;;
40252;SDS011;25972;51.854;4.534;2023-02-10T04:43:16;21.93;;;9.07;;
40252;SDS011;25972;51.854;4.534;2023-02-10T04:45:42;17.40;;;9.03;;
40252;SDS011;25972;51.854;4.534;2023-02-10T04:48:08;22.65;;;8.43;;
40252;SDS011;25972;51.854;4.534;2023-02-10T04:50:35;21.27;;;9.63;;
40252;SDS011;25972;51.854;4.534;2023-02-10T04:53:02;18.80;;;8.93;;
40252;SDS011;25972;51.854;4.534;2023-02-10T04:55:29;22.37;;;10.00;;
40252;SDS011;25972;51.854;4.534;2023-02-10T04:57:59;19.53;;;10.07;;
40252;SDS011;25972;51.854;4.534;2023-02-10T05:00:26;22.23;;;9.83;;
40252;SDS011;25972;51.854;4.534;2023-02-10T05:02:52;22.67;;;9.70;;
40252;SDS011;25972;51.854;4.534;2023-02-10T05:05:18;14.17;;;6.30;;
40252;SDS011;25972;51.854;4.534;2023-02-10T05:07:45;19.75;;;8.85;;
40252;SDS011;25972;51.854;4.534;2023-02-10T05:10:11;9.13;;;4.23;;
40252;SDS011;25972;51.854;4.534;2023-02-10T05:12:37;16.70;;;7.73;;
40252;SDS011;25972;51.854;4.534;2023-02-10T05:15:03;14.67;;;7.53;;
40252;SDS011;25972;51.854;4.534;2023-02-10T05:17:33;17.07;;;8.67;;
40252;SDS011;25972;51.854;4.534;2023-02-10T05:19:59;17.97;;;7.67;;
40252;SDS011;25972;51.854;4.534;2023-02-10T05:22:29;16.00;;;7.67;;
40252;SDS011;25972;51.854;4.534;2023-02-10T05:24:56;15.50;;;8.03;;
40252;SDS011;25972;51.854;4.534;2023-02-10T05:27:23;17.20;;;8.83;;
40252;SDS011;25972;51.854;4.534;2023-02-10T05:29:50;16.43;;;8.20;;
40252;SDS011;25972;51.854;4.534;2023-02-10T05:32:16;16.57;;;8.40;;
40252;SDS011;25972;51.854;4.534;2023-02-10T05:34:42;14.30;;;7.03;;
40252;SDS011;25972;51.854;4.534;2023-02-10T05:37:08;14.20;;;7.47;;
40252;SDS011;25972;51.854;4.534;2023-02-10T05:39:34;17.57;;;8.83;;
40252;SDS011;25972;51.854;4.534;2023-02-10T05:42:00;17.97;;;9.10;;
40252;SDS011;25972;51.854;4.534;2023-02-10T05:44:27;17.27;;;7.70;;
40252;SDS011;25972;51.854;4.534;2023-02-10T05:46:54;15.50;;;7.40;;
40252;SDS011;25972;51.854;4.534;2023-02-10T05:49:21;16.00;;;7.47;;
40252;SDS011;25972;51.854;4.534;2023-02-10T05:51:47;16.90;;;8.60;;
40252;SDS011;25972;51.854;4.534;2023-02-10T05:54:14;18.33;;;8.20;;
40252;SDS011;25972;51.854;4.534;2023-02-10T05:56:40;19.07;;;9.07;;
40252;SDS011;25972;51.854;4.534;2023-02-10T05:59:06;18.23;;;8.53;;
40252;SDS011;25972;51.854;4.534;2023-02-10T06:01:33;18.33;;;9.40;;
40252;SDS011;25972;51.854;4.534;2023-02-10T06:04:00;17.97;;;8.83;;
40252;SDS011;25972;51.854;4.534;2023-02-10T06:06:26;15.43;;;8.43;;
40252;SDS011;25972;51.854;4.534;2023-02-10T06:08:52;17.43;;;8.80;;
40252;SDS011;25972;51.854;4.534;2023-02-10T06:11:18;15.40;;;8.47;;
40252;SDS011;25972;51.854;4.534;2023-02-10T06:13:44;17.90;;;9.23;;
40252;SDS011;25972;51.854;4.534;2023-02-10T06:16:09;11.97;;;5.93;;
40252;SDS011;25972;51.854;4.534;2023-02-10T06:18:36;19.27;;;9.03;;
40252;SDS011;25972;51.854;4.534;2023-02-10T06:21:02;17.80;;;9.60;;
40252;SDS011;25972;51.854;4.534;2023-02-10T06:23:28;24.07;;;10.57;;
40252;SDS011;25972;51.854;4.534;2023-02-10T06:25:58;15.73;;;8.97;;
40252;SDS011;25972;51.854;4.534;2023-02-10T06:28:27;16.40;;;8.03;;
40252;SDS011;25972;51.854;4.534;2023-02-10T06:30:53;15.97;;;6.83;;
40252;SDS011;25972;51.854;4.534;2023-02-10T06:33:20;16.93;;;8.03;;
40252;SDS011;25972;51.854;4.534;2023-02-10T06:35:52;18.33;;;8.17;;
40252;SDS011;25972;51.854;4.534;2023-02-10T06:38:18;20.10;;;8.90;;
40252;SDS011;25972;51.854;4.534;2023-02-10T06:40:44;18.13;;;9.17;;
40252;SDS011;25972;51.854;4.534;2023-02-10T06:43:11;22.00;;;9.27;;
40252;SDS011;25972;51.854;4.534;2023-02-10T06:45:37;21.93;;;9.80;;
40252;SDS011;25972;51.854;4.534;2023-02-10T06:48:03;23.87;;;11.00;;
40252;SDS011;25972;51.854;4.534;2023-02-10T06:50:30;24.87;;;12.47;;
40252;SDS011;25972;51.854;4.534;2023-02-10T06:52:56;19.70;;;9.00;;
40252;SDS011;25972;51.854;4.534;2023-02-10T06:55:22;21.27;;;10.60;;
40252;SDS011;25972;51.854;4.534;2023-02-10T06:57:48;20.40;;;9.90;;
40252;SDS011;25972;51.854;4.534;2023-02-10T07:00:14;20.37;;;8.93;;
40252;SDS011;25972;51.854;4.534;2023-02-10T07:02:41;21.27;;;9.90;;
40252;SDS011;25972;51.854;4.534;2023-02-10T07:05:07;15.47;;;7.43;;
40252;SDS011;25972;51.854;4.534;2023-02-10T07:07:36;21.60;;;10.57;;
40252;SDS011;25972;51.854;4.534;2023-02-10T07:10:03;23.50;;;9.90;;
40252;SDS011;25972;51.854;4.534;2023-02-10T07:12:29;22.43;;;10.43;;
40252;SDS011;25972;51.854;4.534;2023-02-10T07:14:56;24.17;;;10.60;;
40252;SDS011;25972;51.854;4.534;2023-02-10T07:17:22;17.33;;;7.60;;
40252;SDS011;25972;51.854;4.534;2023-02-10T07:19:48;18.07;;;9.07;;
40252;SDS011;25972;51.854;4.534;2023-02-10T07:22:15;22.87;;;9.77;;
40252;SDS011;25972;51.854;4.534;2023-02-10T07:24:41;21.27;;;9.70;;
40252;SDS011;25972;51.854;4.534;2023-02-10T07:27:07;13.70;;;6.80;;
40252;SDS011;25972;51.854;4.534;2023-02-10T07:29:33;21.63;;;9.53;;
40252;SDS011;25972;51.854;4.534;2023-02-10T07:32:04;22.30;;;9.33;;
40252;SDS011;25972;51.854;4.534;2023-02-10T07:34:30;20.83;;;8.80;;
40252;SDS011;25972;51.854;4.534;2023-02-10T07:36:59;23.70;;;10.30;;
40252;SDS011;25972;51.854;4.534;2023-02-10T07:39:25;23.37;;;10.50;;
40252;SDS011;25972;51.854;4.534;2023-02-10T07:41:52;26.93;;;12.30;;
40252;SDS011;25972;51.854;4.534;2023-02-10T07:44:21;23.93;;;11.70;;
40252;SDS011;25972;51.854;4.534;2023-02-10T07:46:52;13.27;;;5.40;;
40252;SDS011;25972;51.854;4.534;2023-02-10T07:49:20;10.63;;;4.37;;
40252;SDS011;25972;51.854;4.534;2023-02-10T07:51:46;8.40;;;3.43;;
40252;SDS011;25972;51.854;4.534;2023-02-10T07:54:14;25.93;;;10.53;;
40252;SDS011;25972;51.854;4.534;2023-02-10T07:56:40;7.63;;;4.00;;
40252;SDS011;25972;51.854;4.534;2023-02-10T07:59:08;24.93;;;11.53;;
40252;SDS011;25972;51.854;4.534;2023-02-10T08:01:34;23.15;;;10.38;;
40252;SDS011;25972;51.854;4.534;2023-02-10T08:04:05;21.07;;;10.43;;
40252;SDS011;25972;51.854;4.534;2023-02-10T08:06:31;27.10;;;11.20;;
40252;SDS011;25972;51.854;4.534;2023-02-10T08:08:59;27.00;;;10.63;;
40252;SDS011;25972;51.854;4.534;2023-02-10T08:11:35;29.90;;;10.75;;
40252;SDS011;25972;51.854;4.534;2023-02-10T08:14:02;8.68;;;4.53;;
40252;SDS011;25972;51.854;4.534;2023-02-10T08:16:28;28.13;;;11.35;;
40252;SDS011;25972;51.854;4.534;2023-02-10T08:18:54;29.27;;;11.27;;
40252;SDS011;25972;51.854;4.534;2023-02-10T08:21:21;28.50;;;11.77;;
40252;SDS011;25972;51.854;4.534;2023-02-10T08:23:47;18.73;;;7.97;;
40252;SDS011;25972;51.854;4.534;2023-02-10T08:26:19;27.53;;;12.30;;
40252;SDS011;25972;51.854;4.534;2023-02-10T08:28:46;28.48;;;11.75;;
40252;SDS011;25972;51.854;4.534;2023-02-10T08:31:12;25.33;;;10.63;;
40252;SDS011;25972;51.854;4.534;2023-02-10T08:33:38;21.00;;;10.43;;
40252;SDS011;25972;51.854;4.534;2023-02-10T08:36:07;24.40;;;11.60;;
40252;SDS011;25972;51.854;4.534;2023-02-10T08:38:35;29.45;;;12.90;;
40252;SDS011;25972;51.854;4.534;2023-02-10T08:41:01;24.90;;;11.93;;
40252;SDS011;25972;51.854;4.534;2023-02-10T08:43:27;29.45;;;11.27;;
40252;SDS011;25972;51.854;4.534;2023-02-10T08:45:59;26.33;;;11.90;;
40252;SDS011;25972;51.854;4.534;2023-02-10T08:48:26;26.45;;;12.35;;
40252;SDS011;25972;51.854;4.534;2023-02-10T08:50:53;11.00;;;4.83;;
40252;SDS011;25972;51.854;4.534;2023-02-10T08:53:20;28.47;;;11.23;;
40252;SDS011;25972;51.854;4.534;2023-02-10T08:56:00;8.50;;;4.15;;
40252;SDS011;25972;51.854;4.534;2023-02-10T08:58:28;20.90;;;8.48;;
40252;SDS011;25972;51.854;4.534;2023-02-10T09:00:54;10.02;;;5.30;;
40252;SDS011;25972;51.854;4.534;2023-02-10T09:03:21;27.92;;;10.88;;
40252;SDS011;25972;51.854;4.534;2023-02-10T09:05:47;25.03;;;11.80;;
40252;SDS011;25972;51.854;4.534;2023-02-10T09:08:14;29.13;;;12.60;;
40252;SDS011;25972;51.854;4.534;2023-02-10T09:10:41;17.10;;;8.33;;
40252;SDS011;25972;51.854;4.534;2023-02-10T09:13:08;18.83;;;8.43;;
40252;SDS011;25972;51.854;4.534;2023-02-10T09:15:40;19.10;;;8.93;;
40252;SDS011;25972;51.854;4.534;2023-02-10T09:18:07;11.95;;;5.30;;
40252;SDS011;25972;51.854;4.534;2023-02-10T09:20:33;25.85;;;11.43;;
40252;SDS011;25972;51.854;4.534;2023-02-10T09:23:00;27.50;;;11.95;;
40252;SDS011;25972;51.854;4.534;2023-02-10T09:25:26;24.67;;;9.73;;
40252;SDS011;25972;51.854;4.534;2023-02-10T09:27:52;26.08;;;10.88;;
40252;SDS011;25972;51.854;4.534;2023-02-10T09:30:21;15.50;;;7.40;;
40252;SDS011;25972;51.854;4.534;2023-02-10T09:32:49;30.88;;;12.23;;
40252;SDS011;25972;51.854;4.534;2023-02-10T09:35:16;30.85;;;12.00;;
40252;SDS011;25972;51.854;4.534;2023-02-10T09:37:41;13.50;;;5.43;;
40252;SDS011;25972;51.854;4.534;2023-02-10T09:45:35;25.90;;;11.07;;
40252;SDS011;25972;51.854;4.534;2023-02-10T09:48:20;20.80;;;9.25;;
40252;SDS011;25972;51.854;4.534;2023-02-10T09:51:04;19.58;;;8.38;;
40252;SDS011;25972;51.854;4.534;2023-02-10T09:53:40;34.72;;;13.23;;
40252;SDS011;25972;51.854;4.534;2023-02-10T09:56:07;35.10;;;14.48;;
40252;SDS011;25972;51.854;4.534;2023-02-10T09:58:40;25.45;;;10.50;;
40252;SDS011;25972;51.854;4.534;2023-02-10T10:04:05;17.77;;;8.05;;
40252;SDS011;25972;51.854;4.534;2023-02-10T10:06:42;11.93;;;6.88;;
40252;SDS011;25972;51.854;4.534;2023-02-10T10:11:38;14.63;;;6.85;;
40252;SDS011;25972;51.854;4.534;2023-02-10T10:25:04;32.45;;;13.77;;
40252;SDS011;25972;51.854;4.534;2023-02-10T10:30:46;37.40;;;17.27;;
40252;SDS011;25972;51.854;4.534;2023-02-10T10:35:49;44.63;;;16.88;;
40252;SDS011;25972;51.854;4.534;2023-02-10T10:38:23;46.17;;;18.67;;
40252;SDS011;25972;51.854;4.534;2023-02-10T10:40:54;46.20;;;16.35;;
40252;SDS011;25972;51.854;4.534;2023-02-10T10:43:26;35.70;;;15.65;;
40252;SDS011;25972;51.854;4.534;2023-02-10T10:45:59;55.03;;;22.55;;
40252;SDS011;25972;51.854;4.534;2023-02-10T10:48:30;31.02;;;12.65;;
40252;SDS011;25972;51.854;4.534;2023-02-10T10:51:02;59.60;;;21.60;;
40252;SDS011;25972;51.854;4.534;2023-02-10T10:53:43;65.53;;;24.20;;
40252;SDS011;25972;51.854;4.534;2023-02-10T10:56:14;14.60;;;6.63;;
40252;SDS011;25972;51.854;4.534;2023-02-10T10:59:00;60.17;;;21.48;;
40252;SDS011;25972;51.854;4.534;2023-02-10T11:01:34;77.22;;;25.38;;
40252;SDS011;25972;51.854;4.534;2023-02-10T11:04:16;75.65;;;27.65;;
40252;SDS011;25972;51.854;4.534;2023-02-10T11:06:48;75.65;;;24.13;;
40252;SDS011;25972;51.854;4.534;2023-02-10T11:11:47;82.07;;;28.83;;
40252;SDS011;25972;51.854;4.534;2023-02-10T11:14:18;62.80;;;22.98;;
40252;SDS011;25972;51.854;4.534;2023-02-10T11:16:50;26.55;;;11.73;;
40252;SDS011;25972;51.854;4.534;2023-02-10T11:19:26;75.70;;;27.50;;
40252;SDS011;25972;51.854;4.534;2023-02-10T11:21:58;66.47;;;21.48;;
40252;SDS011;25972;51.854;4.534;2023-02-10T11:26:58;77.43;;;29.40;;
40252;SDS011;25972;51.854;4.534;2023-02-10T11:29:32;68.75;;;25.33;;
40252;SDS011;25972;51.854;4.534;2023-02-10T11:32:00;61.45;;;25.23;;
40252;SDS011;25972;51.854;4.534;2023-02-10T11:34:28;39.78;;;16.67;;
40252;SDS011;25972;51.854;4.534;2023-02-10T11:36:57;54.20;;;23.17;;
40252;SDS011;25972;51.854;4.534;2023-02-10T11:39:43;62.58;;;23.63;;
40252;SDS011;25972;51.854;4.534;2023-02-10T11:42:15;65.80;;;26.63;;
40252;SDS011;25972;51.854;4.534;2023-02-10T11:44:58;55.53;;;23.38;;
40252;SDS011;25972;51.854;4.534;2023-02-10T11:47:45;62.85;;;23.10;;
40252;SDS011;25972;51.854;4.534;2023-02-10T11:50:27;59.72;;;27.10;;
40252;SDS011;25972;51.854;4.534;2023-02-10T11:52:55;56.72;;;22.48;;
40252;SDS011;25972;51.854;4.534;2023-02-10T11:55:25;17.30;;;8.68;;
40252;SDS011;25972;51.854;4.534;2023-02-10T12:01:15;54.35;;;22.73;;
40252;SDS011;25972;51.854;4.534;2023-02-10T12:09:02;44.28;;;18.48;;
40252;SDS011;25972;51.854;4.534;2023-02-10T12:11:50;22.55;;;11.38;;
40252;SDS011;25972;51.854;4.534;2023-02-10T12:17:00;62.03;;;28.25;;
40252;SDS011;25972;51.854;4.534;2023-02-10T12:19:55;83.43;;;33.28;;
40252;SDS011;25972;51.854;4.534;2023-02-10T12:31:13;42.17;;;16.95;;
40252;SDS011;25972;51.854;4.534;2023-02-10T12:34:01;42.05;;;18.15;;
40252;SDS011;25972;51.854;4.534;2023-02-10T12:37:00;45.88;;;19.20;;
40252;SDS011;25972;51.854;4.534;2023-02-10T12:53:39;22.15;;;10.70;;
40252;SDS011;25972;51.854;4.534;2023-02-10T12:58:48;43.90;;;21.08;;
40252;SDS011;25972;51.854;4.534;2023-02-10T13:01:26;48.25;;;16.92;;
40252;SDS011;25972;51.854;4.534;2023-02-10T13:04:07;52.42;;;21.65;;
40252;SDS011;25972;51.854;4.534;2023-02-10T13:06:41;30.63;;;15.15;;
40252;SDS011;25972;51.854;4.534;2023-02-10T13:09:20;45.85;;;20.55;;
40252;SDS011;25972;51.854;4.534;2023-02-10T13:14:33;36.38;;;19.20;;
40252;SDS011;25972;51.854;4.534;2023-02-10T13:17:01;51.10;;;24.63;;
40252;SDS011;25972;51.854;4.534;2023-02-10T13:19:36;27.08;;;12.40;;
40252;SDS011;25972;51.854;4.534;2023-02-10T13:22:41;62.38;;;25.88;;
40252;SDS011;25972;51.854;4.534;2023-02-10T13:25:17;47.53;;;19.30;;
40252;SDS011;25972;51.854;4.534;2023-02-10T13:36:15;71.13;;;29.48;;
40252;SDS011;25972;51.854;4.534;2023-02-10T13:38:47;49.20;;;20.23;;
40252;SDS011;25972;51.854;4.534;2023-02-10T13:41:24;58.70;;;25.92;;
40252;SDS011;25972;51.854;4.534;2023-02-10T13:44:28;39.08;;;14.80;;
40252;SDS011;25972;51.854;4.534;2023-02-10T13:52:28;27.92;;;14.15;;
40252;SDS011;25972;51.854;4.534;2023-02-10T13:57:38;57.28;;;23.33;;
40252;SDS011;25972;51.854;4.534;2023-02-10T14:05:35;36.70;;;15.90;;
40252;SDS011;25972;51.854;4.534;2023-02-10T14:11:17;35.03;;;16.30;;
40252;SDS011;25972;51.854;4.534;2023-02-10T14:14:36;52.70;;;22.98;;
40252;SDS011;25972;51.854;4.534;2023-02-10T14:16:42;36.70;;;18.25;;
40252;SDS011;25972;51.854;4.534;2023-02-10T14:19:20;50.35;;;21.08;;
40252;SDS011;25972;51.854;4.534;2023-02-10T14:21:55;39.70;;;19.92;;
40252;SDS011;25972;51.854;4.534;2023-02-10T14:24:27;36.00;;;15.93;;
40252;SDS011;25972;51.854;4.534;2023-02-10T14:27:00;54.10;;;24.85;;
40252;SDS011;25972;51.854;4.534;2023-02-10T14:29:31;40.75;;;16.70;;
40252;SDS011;25972;51.854;4.534;2023-02-10T14:32:11;38.42;;;15.80;;
40252;SDS011;25972;51.854;4.534;2023-02-10T14:34:40;42.65;;;18.17;;
40252;SDS011;25972;51.854;4.534;2023-02-10T14:37:14;50.65;;;22.50;;
40252;SDS011;25972;51.854;4.534;2023-02-10T14:42:41;55.83;;;27.70;;
40252;SDS011;25972;51.854;4.534;2023-02-10T14:45:16;55.03;;;23.45;;
40252;SDS011;25972;51.854;4.534;2023-02-10T14:47:45;26.65;;;12.98;;
40252;SDS011;25972;51.854;4.534;2023-02-10T14:50:34;43.35;;;21.42;;
40252;SDS011;25972;51.854;4.534;2023-02-10T14:53:02;49.65;;;22.95;;
40252;SDS011;25972;51.854;4.534;2023-02-10T14:55:38;44.75;;;21.75;;
40252;SDS011;25972;51.854;4.534;2023-02-10T15:00:39;34.95;;;14.40;;
40252;SDS011;25972;51.854;4.534;2023-02-10T15:03:09;20.33;;;10.38;;
40252;SDS011;25972;51.854;4.534;2023-02-10T15:05:43;31.17;;;13.68;;
40252;SDS011;25972;51.854;4.534;2023-02-10T15:11:25;31.88;;;14.18;;
40252;SDS011;25972;51.854;4.534;2023-02-10T15:14:16;44.30;;;20.13;;
40252;SDS011;25972;51.854;4.534;2023-02-10T15:16:56;41.60;;;20.25;;
40252;SDS011;25972;51.854;4.534;2023-02-10T15:19:24;47.05;;;21.98;;
40252;SDS011;25972;51.854;4.534;2023-02-10T15:21:50;49.60;;;21.05;;
40252;SDS011;25972;51.854;4.534;2023-02-10T15:24:18;28.73;;;14.95;;
40252;SDS011;25972;51.854;4.534;2023-02-10T15:26:52;45.10;;;18.77;;
40252;SDS011;25972;51.854;4.534;2023-02-10T15:29:19;29.17;;;14.23;;
40252;SDS011;25972;51.854;4.534;2023-02-10T15:31:56;28.00;;;11.10;;
40252;SDS011;25972;51.854;4.534;2023-02-10T15:34:27;23.13;;;12.00;;
40252;SDS011;25972;51.854;4.534;2023-02-10T15:37:02;29.08;;;12.60;;
40252;SDS011;25972;51.854;4.534;2023-02-10T15:44:37;36.58;;;15.85;;
40252;SDS011;25972;51.854;4.534;2023-02-10T15:49:41;42.50;;;16.98;;
40252;SDS011;25972;51.854;4.534;2023-02-10T15:52:41;27.67;;;14.07;;
40252;SDS011;25972;51.854;4.534;2023-02-10T15:55:13;41.10;;;18.50;;
40252;SDS011;25972;51.854;4.534;2023-02-10T15:57:45;44.83;;;20.02;;
40252;SDS011;25972;51.854;4.534;2023-02-10T16:00:34;40.35;;;17.27;;
40252;SDS011;25972;51.854;4.534;2023-02-10T16:03:00;25.45;;;10.32;;
40252;SDS011;25972;51.854;4.534;2023-02-10T16:05:27;46.97;;;20.58;;
40252;SDS011;25972;51.854;4.534;2023-02-10T16:07:54;42.13;;;18.23;;
40252;SDS011;25972;51.854;4.534;2023-02-10T16:10:29;35.03;;;14.80;;
40252;SDS011;25972;51.854;4.534;2023-02-10T16:12:55;107.63;;;36.50;;
40252;SDS011;25972;51.854;4.534;2023-02-10T16:15:22;54.20;;;18.67;;
40252;SDS011;25972;51.854;4.534;2023-02-10T16:17:52;26.70;;;12.00;;
40252;SDS011;25972;51.854;4.534;2023-02-10T16:20:23;25.80;;;12.02;;
40252;SDS011;25972;51.854;4.534;2023-02-10T16:25:21;14.90;;;7.35;;
40252;SDS011;25972;51.854;4.534;2023-02-10T16:27:51;11.63;;;5.97;;
40252;SDS011;25972;51.854;4.534;2023-02-10T16:30:20;9.40;;;4.28;;
40252;SDS011;25972;51.854;4.534;2023-02-10T16:32:53;12.95;;;6.28;;
40252;SDS011;25972;51.854;4.534;2023-02-10T16:35:20;14.23;;;6.25;;
40252;SDS011;25972;51.854;4.534;2023-02-10T16:37:47;25.13;;;9.70;;
40252;SDS011;25972;51.854;4.534;2023-02-10T16:40:21;17.25;;;7.82;;
40252;SDS011;25972;51.854;4.534;2023-02-10T16:42:49;11.25;;;5.53;;
40252;SDS011;25972;51.854;4.534;2023-02-10T16:45:15;18.45;;;7.93;;
40252;SDS011;25972;51.854;4.534;2023-02-10T16:47:42;22.83;;;8.05;;
40252;SDS011;25972;51.854;4.534;2023-02-10T16:50:13;14.52;;;6.80;;
40252;SDS011;25972;51.854;4.534;2023-02-10T16:53:03;12.23;;;5.60;;
40252;SDS011;25972;51.854;4.534;2023-02-10T16:55:29;18.60;;;8.10;;
40252;SDS011;25972;51.854;4.534;2023-02-10T16:57:56;19.77;;;8.65;;
40252;SDS011;25972;51.854;4.534;2023-02-10T17:00:22;16.95;;;8.25;;